sensor_id;sensor_type;location;lat;lon;timestamp;pressure;altitude;pressure_sealevel;temperature;humidity
113;BME280;45999;48.808;9.182;2023-12-20T00:01:50;98107.69;;;6.08;100.00
113;BME280;45999;48.808;9.182;2023-12-20T00:04:17;98097.56;;;6.12;100.00
113;BME280;45999;48.808;9.182;2023-12-20T00:06:43;98090.66;;;6.11;100.00
113;BME280;45999;48.808;9.182;2023-12-20T00:09:10;98086.41;;;6.16;100.00
113;BME280;45999;48.808;9.182;2023-12-20T00:11:36;98081.34;;;6.15;100.00
113;BME280;45999;48.808;9.182;2023-12-20T00:14:02;98079.75;;;6.20;100.00
113;BME280;45999;48.808;9.182;2023-12-20T00:16:29;98082.78;;;6.17;100.00
113;BME280;45999;48.808;9.182;2023-12-20T00:18:56;98084.84;;;6.22;100.00
113;BME280;45999;48.808;9.182;2023-12-20T00:21:23;98079.91;;;6.12;100.00
113;BME280;45999;48.808;9.182;2023-12-20T00:23:49;98081.72;;;6.12;100.00
113;BME280;45999;48.808;9.182;2023-12-20T00:26:15;98076.00;;;6.08;100.00
113;BME280;45999;48.808;9.182;2023-12-20T00:28:42;98070.28;;;6.05;100.00
113;BME280;45999;48.808;9.182;2023-12-20T00:31:08;98071.03;;;5.99;100.00
113;BME280;45999;48.808;9.182;2023-12-20T00:33:35;98078.91;;;5.92;100.00
113;BME280;45999;48.808;9.182;2023-12-20T00:36:01;98073.63;;;5.92;100.00
113;BME280;45999;48.808;9.182;2023-12-20T00:38:28;98066.72;;;5.91;100.00
113;BME280;45999;48.808;9.182;2023-12-20T00:40:54;98072.00;;;5.91;100.00
113;BME280;45999;48.808;9.182;2023-12-20T00:43:21;98068.09;;;5.87;100.00
113;BME280;45999;48.808;9.182;2023-12-20T00:45:47;98062.44;;;5.90;100.00
113;BME280;45999;48.808;9.182;2023-12-20T00:48:14;98062.38;;;5.84;100.00
113;BME280;45999;48.808;9.182;2023-12-20T00:50:40;98071.16;;;5.91;100.00
113;BME280;45999;48.808;9.182;2023-12-20T00:53:06;98069.28;;;5.85;100.00
113;BME280;45999;48.808;9.182;2023-12-20T00:55:34;98058.13;;;5.83;100.00
113;BME280;45999;48.808;9.182;2023-12-20T00:58:02;98059.75;;;5.84;100.00
113;BME280;45999;48.808;9.182;2023-12-20T01:00:28;98069.66;;;5.82;100.00
113;BME280;45999;48.808;9.182;2023-12-20T01:02:55;98059.84;;;5.76;100.00
113;BME280;45999;48.808;9.182;2023-12-20T01:05:21;98066.56;;;5.78;100.00
113;BME280;45999;48.808;9.182;2023-12-20T01:07:49;98064.69;;;5.72;100.00
113;BME280;45999;48.808;9.182;2023-12-20T01:10:15;98062.59;;;5.68;100.00
113;BME280;45999;48.808;9.182;2023-12-20T01:12:43;98072.28;;;5.61;100.00
113;BME280;45999;48.808;9.182;2023-12-20T01:15:09;98067.72;;;5.55;100.00
113;BME280;45999;48.808;9.182;2023-12-20T01:17:36;98062.44;;;5.55;100.00
113;BME280;45999;48.808;9.182;2023-12-20T01:20:03;98068.13;;;5.52;100.00
113;BME280;45999;48.808;9.182;2023-12-20T01:22:29;98070.94;;;5.50;100.00
113;BME280;45999;48.808;9.182;2023-12-20T01:24:56;98061.59;;;5.48;100.00
113;BME280;45999;48.808;9.182;2023-12-20T01:27:22;98065.75;;;5.57;100.00
113;BME280;45999;48.808;9.182;2023-12-20T01:29:49;98073.47;;;5.58;100.00
113;BME280;45999;48.808;9.182;2023-12-20T01:32:15;98067.47;;;5.50;100.00
113;BME280;45999;48.808;9.182;2023-12-20T01:34:41;98088.56;;;5.50;100.00
113;BME280;45999;48.808;9.182;2023-12-20T01:37:08;98080.84;;;5.48;100.00
113;BME280;45999;48.808;9.182;2023-12-20T01:39:34;98077.75;;;5.45;100.00
113;BME280;45999;48.808;9.182;2023-12-20T01:42:00;98068.84;;;5.46;100.00
113;BME280;45999;48.808;9.182;2023-12-20T01:44:27;98083.44;;;5.42;100.00
113;BME280;45999;48.808;9.182;2023-12-20T01:46:54;98076.50;;;5.41;100.00
113;BME280;45999;48.808;9.182;2023-12-20T01:49:21;98081.16;;;5.39;100.00
113;BME280;45999;48.808;9.182;2023-12-20T01:51:48;98078.88;;;5.36;100.00
113;BME280;45999;48.808;9.182;2023-12-20T01:54:14;98080.25;;;5.32;100.00
113;BME280;45999;48.808;9.182;2023-12-20T01:56:41;98074.97;;;5.32;100.00
113;BME280;45999;48.808;9.182;2023-12-20T01:59:08;98069.09;;;5.30;100.00
113;BME280;45999;48.808;9.182;2023-12-20T02:01:35;98066.63;;;5.28;100.00
113;BME280;45999;48.808;9.182;2023-12-20T02:04:02;98069.84;;;5.24;100.00
113;BME280;45999;48.808;9.182;2023-12-20T02:06:30;98070.00;;;5.22;100.00
113;BME280;45999;48.808;9.182;2023-12-20T02:08:57;98068.56;;;5.20;100.00
113;BME280;45999;48.808;9.182;2023-12-20T02:11:25;98064.50;;;5.17;100.00
113;BME280;45999;48.808;9.182;2023-12-20T02:13:51;98063.66;;;5.17;100.00
113;BME280;45999;48.808;9.182;2023-12-20T02:16:18;98057.38;;;5.18;100.00
113;BME280;45999;48.808;9.182;2023-12-20T02:18:44;98072.56;;;5.16;100.00
113;BME280;45999;48.808;9.182;2023-12-20T02:21:11;98064.66;;;5.16;100.00
113;BME280;45999;48.808;9.182;2023-12-20T02:23:37;98069.50;;;5.12;100.00
113;BME280;45999;48.808;9.182;2023-12-20T02:26:04;98071.47;;;5.10;100.00
113;BME280;45999;48.808;9.182;2023-12-20T02:28:31;98069.69;;;5.11;100.00
113;BME280;45999;48.808;9.182;2023-12-20T02:30:58;98073.28;;;5.10;100.00
113;BME280;45999;48.808;9.182;2023-12-20T02:33:24;98066.88;;;5.12;100.00
113;BME280;45999;48.808;9.182;2023-12-20T02:35:50;98069.03;;;5.09;100.00
113;BME280;45999;48.808;9.182;2023-12-20T02:38:17;98072.13;;;5.12;100.00
113;BME280;45999;48.808;9.182;2023-12-20T02:40:44;98075.56;;;5.13;100.00
113;BME280;45999;48.808;9.182;2023-12-20T02:43:10;98075.75;;;5.11;100.00
113;BME280;45999;48.808;9.182;2023-12-20T02:45:36;98073.28;;;5.10;100.00
113;BME280;45999;48.808;9.182;2023-12-20T02:48:03;98071.56;;;5.17;100.00
113;BME280;45999;48.808;9.182;2023-12-20T02:50:29;98074.56;;;5.14;100.00
113;BME280;45999;48.808;9.182;2023-12-20T02:52:56;98067.66;;;5.13;100.00
113;BME280;45999;48.808;9.182;2023-12-20T02:55:22;98071.56;;;5.17;100.00
113;BME280;45999;48.808;9.182;2023-12-20T02:57:48;98068.66;;;5.12;100.00
113;BME280;45999;48.808;9.182;2023-12-20T03:00:15;98073.19;;;5.18;100.00
113;BME280;45999;48.808;9.182;2023-12-20T03:02:41;98079.47;;;5.17;100.00
113;BME280;45999;48.808;9.182;2023-12-20T03:05:08;98076.09;;;5.23;100.00
113;BME280;45999;48.808;9.182;2023-12-20T03:07:36;98068.84;;;5.25;100.00
113;BME280;45999;48.808;9.182;2023-12-20T03:10:03;98074.91;;;5.25;100.00
113;BME280;45999;48.808;9.182;2023-12-20T03:12:30;98078.63;;;5.31;100.00
113;BME280;45999;48.808;9.182;2023-12-20T03:14:56;98083.34;;;5.35;100.00
113;BME280;45999;48.808;9.182;2023-12-20T03:17:22;98076.41;;;5.34;100.00
113;BME280;45999;48.808;9.182;2023-12-20T03:19:49;98083.88;;;5.31;100.00
113;BME280;45999;48.808;9.182;2023-12-20T03:22:15;98081.69;;;5.34;100.00
113;BME280;45999;48.808;9.182;2023-12-20T03:24:41;98084.53;;;5.33;100.00
113;BME280;45999;48.808;9.182;2023-12-20T03:27:08;98092.13;;;5.42;100.00
113;BME280;45999;48.808;9.182;2023-12-20T03:29:34;98082.41;;;5.43;100.00
113;BME280;45999;48.808;9.182;2023-12-20T03:32:00;98084.41;;;5.41;100.00
113;BME280;45999;48.808;9.182;2023-12-20T03:34:27;98091.59;;;5.47;100.00
113;BME280;45999;48.808;9.182;2023-12-20T03:36:54;98089.06;;;5.39;100.00
113;BME280;45999;48.808;9.182;2023-12-20T03:39:20;98097.34;;;5.36;100.00
113;BME280;45999;48.808;9.182;2023-12-20T03:41:47;98096.53;;;5.35;100.00
113;BME280;45999;48.808;9.182;2023-12-20T03:44:13;98097.78;;;5.39;100.00
113;BME280;45999;48.808;9.182;2023-12-20T03:46:39;98102.44;;;5.37;100.00
113;BME280;45999;48.808;9.182;2023-12-20T03:49:06;98098.97;;;5.37;100.00
113;BME280;45999;48.808;9.182;2023-12-20T03:51:32;98102.34;;;5.31;100.00
113;BME280;45999;48.808;9.182;2023-12-20T03:53:58;98099.09;;;5.29;100.00
113;BME280;45999;48.808;9.182;2023-12-20T03:56:24;98105.34;;;5.28;100.00
113;BME280;45999;48.808;9.182;2023-12-20T03:58:51;98106.00;;;5.30;100.00
113;BME280;45999;48.808;9.182;2023-12-20T04:01:17;98108.25;;;5.33;100.00
113;BME280;45999;48.808;9.182;2023-12-20T04:03:43;98101.59;;;5.37;100.00
113;BME280;45999;48.808;9.182;2023-12-20T04:06:10;98103.00;;;5.33;100.00
113;BME280;45999;48.808;9.182;2023-12-20T04:08:36;98110.50;;;5.36;100.00
113;BME280;45999;48.808;9.182;2023-12-20T04:11:03;98107.63;;;5.31;100.00
113;BME280;45999;48.808;9.182;2023-12-20T04:13:29;98116.28;;;5.25;100.00
113;BME280;45999;48.808;9.182;2023-12-20T04:15:55;98108.38;;;5.25;100.00
113;BME280;45999;48.808;9.182;2023-12-20T04:18:22;98096.72;;;5.19;100.00
113;BME280;45999;48.808;9.182;2023-12-20T04:20:48;98106.72;;;5.24;100.00
113;BME280;45999;48.808;9.182;2023-12-20T04:23:15;98116.00;;;5.20;100.00
113;BME280;45999;48.808;9.182;2023-12-20T04:25:41;98120.09;;;5.22;100.00
113;BME280;45999;48.808;9.182;2023-12-20T04:28:07;98120.88;;;5.23;100.00
113;BME280;45999;48.808;9.182;2023-12-20T04:30:34;98133.28;;;5.22;100.00
113;BME280;45999;48.808;9.182;2023-12-20T04:33:00;98130.28;;;5.11;100.00
113;BME280;45999;48.808;9.182;2023-12-20T04:35:27;98130.91;;;5.13;100.00
113;BME280;45999;48.808;9.182;2023-12-20T04:37:53;98115.56;;;5.02;100.00
113;BME280;45999;48.808;9.182;2023-12-20T04:40:20;98120.09;;;5.08;100.00
113;BME280;45999;48.808;9.182;2023-12-20T04:42:46;98137.25;;;5.04;100.00
113;BME280;45999;48.808;9.182;2023-12-20T04:45:12;98135.06;;;5.07;100.00
113;BME280;45999;48.808;9.182;2023-12-20T04:47:41;98147.72;;;5.12;100.00
113;BME280;45999;48.808;9.182;2023-12-20T04:50:08;98146.53;;;5.14;100.00
113;BME280;45999;48.808;9.182;2023-12-20T04:52:36;98141.53;;;5.05;100.00
113;BME280;45999;48.808;9.182;2023-12-20T04:55:02;98140.56;;;5.06;100.00
113;BME280;45999;48.808;9.182;2023-12-20T04:57:29;98148.63;;;5.04;100.00
113;BME280;45999;48.808;9.182;2023-12-20T04:59:55;98145.00;;;5.05;100.00
113;BME280;45999;48.808;9.182;2023-12-20T05:02:22;98145.44;;;5.09;100.00
113;BME280;45999;48.808;9.182;2023-12-20T05:04:48;98151.63;;;5.16;100.00
113;BME280;45999;48.808;9.182;2023-12-20T05:07:14;98148.16;;;5.15;100.00
113;BME280;45999;48.808;9.182;2023-12-20T05:09:41;98156.06;;;5.15;100.00
113;BME280;45999;48.808;9.182;2023-12-20T05:12:07;98160.16;;;5.18;100.00
113;BME280;45999;48.808;9.182;2023-12-20T05:14:34;98165.81;;;5.15;100.00
113;BME280;45999;48.808;9.182;2023-12-20T05:17:01;98157.53;;;5.18;100.00
113;BME280;45999;48.808;9.182;2023-12-20T05:19:28;98163.34;;;5.13;100.00
113;BME280;45999;48.808;9.182;2023-12-20T05:21:54;98164.97;;;5.14;100.00
113;BME280;45999;48.808;9.182;2023-12-20T05:24:21;98169.25;;;5.15;100.00
113;BME280;45999;48.808;9.182;2023-12-20T05:26:47;98158.63;;;5.09;100.00
113;BME280;45999;48.808;9.182;2023-12-20T05:29:13;98161.50;;;5.14;100.00
113;BME280;45999;48.808;9.182;2023-12-20T05:31:40;98164.81;;;5.16;100.00
113;BME280;45999;48.808;9.182;2023-12-20T05:34:06;98169.81;;;5.11;100.00
113;BME280;45999;48.808;9.182;2023-12-20T05:36:33;98188.88;;;5.13;100.00
113;BME280;45999;48.808;9.182;2023-12-20T05:38:59;98184.59;;;5.12;100.00
113;BME280;45999;48.808;9.182;2023-12-20T05:41:25;98182.25;;;5.17;100.00
113;BME280;45999;48.808;9.182;2023-12-20T05:43:52;98189.16;;;5.18;100.00
113;BME280;45999;48.808;9.182;2023-12-20T05:46:18;98195.41;;;5.17;100.00
113;BME280;45999;48.808;9.182;2023-12-20T05:48:46;98199.69;;;5.18;100.00
113;BME280;45999;48.808;9.182;2023-12-20T05:51:13;98193.63;;;5.17;100.00
113;BME280;45999;48.808;9.182;2023-12-20T05:53:40;98206.78;;;5.17;100.00
113;BME280;45999;48.808;9.182;2023-12-20T05:56:06;98211.84;;;5.19;100.00
113;BME280;45999;48.808;9.182;2023-12-20T05:58:33;98213.25;;;5.15;100.00
113;BME280;45999;48.808;9.182;2023-12-20T06:00:59;98215.66;;;5.16;100.00
113;BME280;45999;48.808;9.182;2023-12-20T06:03:26;98219.97;;;5.17;100.00
113;BME280;45999;48.808;9.182;2023-12-20T06:05:52;98222.59;;;5.17;100.00
113;BME280;45999;48.808;9.182;2023-12-20T06:08:18;98227.41;;;5.14;100.00
113;BME280;45999;48.808;9.182;2023-12-20T06:10:45;98225.75;;;5.13;100.00
113;BME280;45999;48.808;9.182;2023-12-20T06:13:11;98225.59;;;5.14;100.00
113;BME280;45999;48.808;9.182;2023-12-20T06:15:38;98225.03;;;5.19;100.00
113;BME280;45999;48.808;9.182;2023-12-20T06:18:05;98230.31;;;5.19;100.00
113;BME280;45999;48.808;9.182;2023-12-20T06:20:32;98231.97;;;5.20;100.00
113;BME280;45999;48.808;9.182;2023-12-20T06:22:59;98225.13;;;5.25;100.00
113;BME280;45999;48.808;9.182;2023-12-20T06:25:25;98234.50;;;5.28;100.00
113;BME280;45999;48.808;9.182;2023-12-20T06:27:51;98221.88;;;5.23;100.00
113;BME280;45999;48.808;9.182;2023-12-20T06:30:18;98219.50;;;5.28;100.00
113;BME280;45999;48.808;9.182;2023-12-20T06:32:44;98219.06;;;5.25;100.00
113;BME280;45999;48.808;9.182;2023-12-20T06:35:12;98214.59;;;5.25;100.00
113;BME280;45999;48.808;9.182;2023-12-20T06:37:38;98220.69;;;5.26;100.00
113;BME280;45999;48.808;9.182;2023-12-20T06:40:08;98227.84;;;5.32;100.00
113;BME280;45999;48.808;9.182;2023-12-20T06:42:34;98234.97;;;5.31;100.00
113;BME280;45999;48.808;9.182;2023-12-20T06:45:01;98237.13;;;5.28;100.00
113;BME280;45999;48.808;9.182;2023-12-20T06:47:27;98236.78;;;5.31;100.00
113;BME280;45999;48.808;9.182;2023-12-20T06:49:54;98238.41;;;5.32;100.00
113;BME280;45999;48.808;9.182;2023-12-20T06:52:20;98243.41;;;5.27;100.00
113;BME280;45999;48.808;9.182;2023-12-20T06:54:47;98242.03;;;5.31;100.00
113;BME280;45999;48.808;9.182;2023-12-20T06:57:13;98253.94;;;5.27;100.00
113;BME280;45999;48.808;9.182;2023-12-20T06:59:43;98255.13;;;5.24;100.00
113;BME280;45999;48.808;9.182;2023-12-20T07:02:09;98259.88;;;5.29;100.00
113;BME280;45999;48.808;9.182;2023-12-20T07:04:39;98264.59;;;5.33;100.00
113;BME280;45999;48.808;9.182;2023-12-20T07:07:08;98265.94;;;5.29;100.00
113;BME280;45999;48.808;9.182;2023-12-20T07:09:34;98262.50;;;5.29;100.00
113;BME280;45999;48.808;9.182;2023-12-20T07:12:01;98267.22;;;5.33;100.00
113;BME280;45999;48.808;9.182;2023-12-20T07:14:27;98271.69;;;5.33;100.00
113;BME280;45999;48.808;9.182;2023-12-20T07:16:54;98277.69;;;5.41;100.00
113;BME280;45999;48.808;9.182;2023-12-20T07:19:20;98287.06;;;5.44;100.00
113;BME280;45999;48.808;9.182;2023-12-20T07:21:47;98287.16;;;5.50;100.00
113;BME280;45999;48.808;9.182;2023-12-20T07:24:13;98288.03;;;5.57;100.00
113;BME280;45999;48.808;9.182;2023-12-20T07:26:39;98299.06;;;5.61;100.00
113;BME280;45999;48.808;9.182;2023-12-20T07:29:06;98301.22;;;5.57;100.00
113;BME280;45999;48.808;9.182;2023-12-20T07:31:32;98308.78;;;5.60;100.00
113;BME280;45999;48.808;9.182;2023-12-20T07:33:59;98314.06;;;5.60;100.00
113;BME280;45999;48.808;9.182;2023-12-20T07:36:26;98325.97;;;5.56;100.00
113;BME280;45999;48.808;9.182;2023-12-20T07:38:52;98319.06;;;5.55;100.00
113;BME280;45999;48.808;9.182;2023-12-20T07:41:19;98319.41;;;5.38;100.00
113;BME280;45999;48.808;9.182;2023-12-20T07:43:47;98330.88;;;5.45;100.00
113;BME280;45999;48.808;9.182;2023-12-20T07:46:13;98328.63;;;5.42;100.00
113;BME280;45999;48.808;9.182;2023-12-20T07:48:39;98320.03;;;5.40;100.00
113;BME280;45999;48.808;9.182;2023-12-20T07:51:06;98329.75;;;5.39;100.00
113;BME280;45999;48.808;9.182;2023-12-20T07:53:34;98319.41;;;5.38;100.00
113;BME280;45999;48.808;9.182;2023-12-20T07:56:01;98323.75;;;5.31;100.00
113;BME280;45999;48.808;9.182;2023-12-20T07:58:27;98324.31;;;5.26;100.00
113;BME280;45999;48.808;9.182;2023-12-20T08:00:55;98316.75;;;5.23;100.00
113;BME280;45999;48.808;9.182;2023-12-20T08:03:21;98322.09;;;5.15;100.00
113;BME280;45999;48.808;9.182;2023-12-20T08:05:47;98328.72;;;5.11;100.00
113;BME280;45999;48.808;9.182;2023-12-20T08:08:14;98327.97;;;5.03;100.00
113;BME280;45999;48.808;9.182;2023-12-20T08:10:40;98327.31;;;5.01;100.00
113;BME280;45999;48.808;9.182;2023-12-20T08:13:06;98338.75;;;4.93;100.00
113;BME280;45999;48.808;9.182;2023-12-20T08:15:33;98336.66;;;4.89;100.00
113;BME280;45999;48.808;9.182;2023-12-20T08:18:00;98342.31;;;4.78;100.00
113;BME280;45999;48.808;9.182;2023-12-20T08:20:26;98350.34;;;4.84;100.00
113;BME280;45999;48.808;9.182;2023-12-20T08:22:52;98352.28;;;4.90;100.00
113;BME280;45999;48.808;9.182;2023-12-20T08:25:19;98360.19;;;4.90;100.00
113;BME280;45999;48.808;9.182;2023-12-20T08:27:45;98356.09;;;4.88;100.00
113;BME280;45999;48.808;9.182;2023-12-20T08:30:12;98357.06;;;4.87;100.00
113;BME280;45999;48.808;9.182;2023-12-20T08:32:38;98346.72;;;4.85;100.00
113;BME280;45999;48.808;9.182;2023-12-20T08:35:05;98356.94;;;4.80;100.00
113;BME280;45999;48.808;9.182;2023-12-20T08:37:31;98360.41;;;4.81;100.00
113;BME280;45999;48.808;9.182;2023-12-20T08:39:57;98380.47;;;4.82;100.00
113;BME280;45999;48.808;9.182;2023-12-20T08:42:24;98376.03;;;4.82;100.00
113;BME280;45999;48.808;9.182;2023-12-20T08:44:56;98383.09;;;4.82;100.00
113;BME280;45999;48.808;9.182;2023-12-20T08:47:22;98381.69;;;4.71;100.00
113;BME280;45999;48.808;9.182;2023-12-20T08:49:48;98384.28;;;4.79;100.00
113;BME280;45999;48.808;9.182;2023-12-20T08:52:15;98388.66;;;4.87;100.00
113;BME280;45999;48.808;9.182;2023-12-20T08:54:41;98385.75;;;4.82;100.00
113;BME280;45999;48.808;9.182;2023-12-20T08:57:07;98389.84;;;4.84;100.00
113;BME280;45999;48.808;9.182;2023-12-20T08:59:34;98390.78;;;4.91;100.00
113;BME280;45999;48.808;9.182;2023-12-20T09:02:00;98376.00;;;4.90;100.00
113;BME280;45999;48.808;9.182;2023-12-20T09:04:27;98363.34;;;4.86;100.00
113;BME280;45999;48.808;9.182;2023-12-20T09:06:54;98374.34;;;4.89;100.00
113;BME280;45999;48.808;9.182;2023-12-20T09:09:20;98374.41;;;5.04;100.00
113;BME280;45999;48.808;9.182;2023-12-20T09:11:47;98379.91;;;5.17;100.00
113;BME280;45999;48.808;9.182;2023-12-20T09:14:15;98391.00;;;5.27;100.00
113;BME280;45999;48.808;9.182;2023-12-20T09:16:41;98385.28;;;5.23;100.00
113;BME280;45999;48.808;9.182;2023-12-20T09:19:07;98383.47;;;5.24;100.00
113;BME280;45999;48.808;9.182;2023-12-20T09:21:34;98371.66;;;5.34;100.00
113;BME280;45999;48.808;9.182;2023-12-20T09:24:00;98373.66;;;5.32;100.00
113;BME280;45999;48.808;9.182;2023-12-20T09:26:27;98377.31;;;5.31;100.00
113;BME280;45999;48.808;9.182;2023-12-20T09:28:53;98384.94;;;5.41;100.00
113;BME280;45999;48.808;9.182;2023-12-20T09:31:19;98385.78;;;5.41;100.00
113;BME280;45999;48.808;9.182;2023-12-20T09:33:46;98387.88;;;5.46;100.00
113;BME280;45999;48.808;9.182;2023-12-20T09:36:12;98383.25;;;5.48;100.00
113;BME280;45999;48.808;9.182;2023-12-20T09:38:39;98395.38;;;5.57;100.00
113;BME280;45999;48.808;9.182;2023-12-20T09:41:05;98397.34;;;5.55;100.00
113;BME280;45999;48.808;9.182;2023-12-20T09:43:38;98404.06;;;5.57;100.00
113;BME280;45999;48.808;9.182;2023-12-20T09:46:06;98399.28;;;5.61;100.00
113;BME280;45999;48.808;9.182;2023-12-20T09:48:33;98406.75;;;5.72;100.00
113;BME280;45999;48.808;9.182;2023-12-20T09:50:59;98402.75;;;5.76;100.00
113;BME280;45999;48.808;9.182;2023-12-20T09:53:26;98405.56;;;5.74;100.00
113;BME280;45999;48.808;9.182;2023-12-20T09:55:58;98415.47;;;5.80;100.00
113;BME280;45999;48.808;9.182;2023-12-20T09:58:25;98408.66;;;5.78;100.00
113;BME280;45999;48.808;9.182;2023-12-20T10:00:52;98414.56;;;5.88;100.00
113;BME280;45999;48.808;9.182;2023-12-20T10:03:24;98414.00;;;5.92;100.00
113;BME280;45999;48.808;9.182;2023-12-20T10:05:54;98412.34;;;5.91;100.00
113;BME280;45999;48.808;9.182;2023-12-20T10:08:22;98411.72;;;6.04;100.00
113;BME280;45999;48.808;9.182;2023-12-20T10:10:50;98422.91;;;6.20;100.00
113;BME280;45999;48.808;9.182;2023-12-20T10:13:16;98419.75;;;6.25;100.00
113;BME280;45999;48.808;9.182;2023-12-20T10:15:43;98409.97;;;6.25;100.00
113;BME280;45999;48.808;9.182;2023-12-20T10:18:09;98411.09;;;6.31;100.00
113;BME280;45999;48.808;9.182;2023-12-20T10:20:36;98411.38;;;6.21;100.00
113;BME280;45999;48.808;9.182;2023-12-20T10:23:03;98406.72;;;6.09;100.00
113;BME280;45999;48.808;9.182;2023-12-20T10:25:29;98400.28;;;5.97;100.00
113;BME280;45999;48.808;9.182;2023-12-20T10:28:16;98399.00;;;5.93;100.00
113;BME280;45999;48.808;9.182;2023-12-20T10:30:44;98393.81;;;5.99;100.00
113;BME280;45999;48.808;9.182;2023-12-20T10:33:11;98386.16;;;6.04;100.00
113;BME280;45999;48.808;9.182;2023-12-20T10:35:38;98387.97;;;6.04;100.00
113;BME280;45999;48.808;9.182;2023-12-20T10:38:05;98380.97;;;6.11;100.00
113;BME280;45999;48.808;9.182;2023-12-20T10:40:35;98396.34;;;6.07;100.00
113;BME280;45999;48.808;9.182;2023-12-20T10:43:03;98387.97;;;6.04;100.00
113;BME280;45999;48.808;9.182;2023-12-20T10:45:30;98395.97;;;5.96;100.00
113;BME280;45999;48.808;9.182;2023-12-20T10:47:57;98390.59;;;5.89;100.00
113;BME280;45999;48.808;9.182;2023-12-20T10:50:26;98390.53;;;5.83;100.00
113;BME280;45999;48.808;9.182;2023-12-20T10:52:52;98389.75;;;5.74;100.00
113;BME280;45999;48.808;9.182;2023-12-20T10:55:21;98378.75;;;5.71;100.00
113;BME280;45999;48.808;9.182;2023-12-20T10:57:50;98386.72;;;5.63;100.00
113;BME280;45999;48.808;9.182;2023-12-20T11:00:20;98386.56;;;5.64;100.00
113;BME280;45999;48.808;9.182;2023-12-20T11:02:49;98373.88;;;5.60;100.00
113;BME280;45999;48.808;9.182;2023-12-20T11:07:56;98379.16;;;5.60;100.00
113;BME280;45999;48.808;9.182;2023-12-20T11:10:58;98375.63;;;5.53;100.00
113;BME280;45999;48.808;9.182;2023-12-20T11:13:32;98385.03;;;5.70;100.00
113;BME280;45999;48.808;9.182;2023-12-20T11:16:00;98375.03;;;5.80;100.00
113;BME280;45999;48.808;9.182;2023-12-20T11:18:29;98388.72;;;5.98;100.00
113;BME280;45999;48.808;9.182;2023-12-20T11:21:00;98378.69;;;5.93;100.00
113;BME280;45999;48.808;9.182;2023-12-20T11:23:29;98370.50;;;5.88;100.00
113;BME280;45999;48.808;9.182;2023-12-20T11:25:57;98366.31;;;5.94;100.00
113;BME280;45999;48.808;9.182;2023-12-20T11:28:24;98361.22;;;5.92;100.00
113;BME280;45999;48.808;9.182;2023-12-20T11:30:55;98370.97;;;5.92;100.00
113;BME280;45999;48.808;9.182;2023-12-20T11:33:44;98374.97;;;5.88;100.00
113;BME280;45999;48.808;9.182;2023-12-20T11:36:18;98376.34;;;5.84;100.00
113;BME280;45999;48.808;9.182;2023-12-20T11:38:57;98383.50;;;5.90;100.00
113;BME280;45999;48.808;9.182;2023-12-20T11:41:25;98372.59;;;5.93;100.00
113;BME280;45999;48.808;9.182;2023-12-20T11:43:55;98366.56;;;5.84;100.00
113;BME280;45999;48.808;9.182;2023-12-20T11:46:22;98369.78;;;5.94;100.00
113;BME280;45999;48.808;9.182;2023-12-20T11:48:48;98370.97;;;5.92;100.00
113;BME280;45999;48.808;9.182;2023-12-20T11:51:15;98377.06;;;5.92;100.00
113;BME280;45999;48.808;9.182;2023-12-20T11:53:42;98363.50;;;5.95;100.00
113;BME280;45999;48.808;9.182;2023-12-20T11:56:08;98362.75;;;5.87;100.00
113;BME280;45999;48.808;9.182;2023-12-20T11:58:36;98365.88;;;5.90;100.00
113;BME280;45999;48.808;9.182;2023-12-20T12:01:03;98364.16;;;5.83;100.00
113;BME280;45999;48.808;9.182;2023-12-20T12:03:29;98357.56;;;5.79;100.00
113;BME280;45999;48.808;9.182;2023-12-20T12:05:56;98352.94;;;5.81;100.00
113;BME280;45999;48.808;9.182;2023-12-20T12:08:23;98352.19;;;5.87;100.00
113;BME280;45999;48.808;9.182;2023-12-20T12:10:49;98343.31;;;5.88;100.00
113;BME280;45999;48.808;9.182;2023-12-20T12:13:16;98342.22;;;5.97;100.00
113;BME280;45999;48.808;9.182;2023-12-20T12:15:42;98336.72;;;5.98;100.00
113;BME280;45999;48.808;9.182;2023-12-20T12:18:09;98327.00;;;5.99;100.00
113;BME280;45999;48.808;9.182;2023-12-20T12:20:36;98334.38;;;6.03;100.00
113;BME280;45999;48.808;9.182;2023-12-20T12:23:04;98325.16;;;6.14;100.00
113;BME280;45999;48.808;9.182;2023-12-20T12:25:32;98329.06;;;6.18;100.00
113;BME280;45999;48.808;9.182;2023-12-20T12:27:59;98334.66;;;6.08;100.00
113;BME280;45999;48.808;9.182;2023-12-20T12:30:25;98332.47;;;6.12;100.00
113;BME280;45999;48.808;9.182;2023-12-20T12:32:52;98322.06;;;6.10;100.00
113;BME280;45999;48.808;9.182;2023-12-20T12:35:19;98313.91;;;6.05;100.00
113;BME280;45999;48.808;9.182;2023-12-20T12:37:46;98320.44;;;5.95;100.00
113;BME280;45999;48.808;9.182;2023-12-20T12:40:14;98323.66;;;5.90;100.00
113;BME280;45999;48.808;9.182;2023-12-20T12:42:42;98325.56;;;5.96;100.00
113;BME280;45999;48.808;9.182;2023-12-20T12:45:09;98315.00;;;5.96;100.00
113;BME280;45999;48.808;9.182;2023-12-20T12:47:36;98320.81;;;6.06;100.00
113;BME280;45999;48.808;9.182;2023-12-20T12:50:03;98318.44;;;6.11;100.00
113;BME280;45999;48.808;9.182;2023-12-20T12:52:30;98311.97;;;6.14;100.00
113;BME280;45999;48.808;9.182;2023-12-20T12:54:57;98322.06;;;6.10;100.00
113;BME280;45999;48.808;9.182;2023-12-20T12:57:23;98325.16;;;6.14;100.00
113;BME280;45999;48.808;9.182;2023-12-20T12:59:50;98329.19;;;6.10;100.00
113;BME280;45999;48.808;9.182;2023-12-20T13:02:16;98328.00;;;6.12;100.00
113;BME280;45999;48.808;9.182;2023-12-20T13:04:43;98334.00;;;6.21;100.00
113;BME280;45999;48.808;9.182;2023-12-20T13:07:10;98331.63;;;6.26;100.00
113;BME280;45999;48.808;9.182;2023-12-20T13:09:36;98311.41;;;6.33;100.00
113;BME280;45999;48.808;9.182;2023-12-20T13:12:04;98326.81;;;6.15;100.00
113;BME280;45999;48.808;9.182;2023-12-20T13:14:35;98318.06;;;6.14;100.00
113;BME280;45999;48.808;9.182;2023-12-20T13:17:03;98325.28;;;6.06;100.00
113;BME280;45999;48.808;9.182;2023-12-20T13:19:29;98324.28;;;6.07;100.00
113;BME280;45999;48.808;9.182;2023-12-20T13:21:56;98323.63;;;6.05;100.00
113;BME280;45999;48.808;9.182;2023-12-20T13:24:23;98321.81;;;6.05;100.00